Bryce Canyon Natl Park, Utah
Current Conditions -  °F | °C
As of 11:53 AM on Saturday 25 Oct 2014 (Local Time) from KBCE Reporting Station
Clear Clear  
Wind Chill: 59°   Ceiling: Unl
Heat Index: 59°   Visibility: 10mi
Dew Point: 35°   Wind: 14mph
Humidity: 41%   Direction: 130°SE
Pressure: 30.35"   Gusts: NA
Location:  37.58°N, 112.17°W
Report Text: KBCE 251753Z AUTO 13012KT 10SM CLR 15/02 A3035 RMK AO2 SLP204 T01500017 10156 21033 58006 TSNO
Loading
Personal Weather Stations






























Interactive Weather Map
Tropical Storm Tracking
New forecast layout! Learn more

10-Day Weather Forecast

Advertisements
Track Severe Weather on mobile